FIH51 EFRO-EFRO

Flight info

Callsign FIH51
Flight time N/A
Altitude 1200
Route DCT
Aircraft EC45/L-SFG/C

Departure

Time 2026-04-28 16:38
Airport Rovaniemi Airport (EFRO)

Arrival

Time N/A
Airport Rovaniemi Airport (EFRO)
Time Latitude Longitude Altitude Speed Heading
2026-04-28 16:25 66.55584 25.82224 635 ft 0 kts 132°
2026-04-28 16:29 66.55585 25.82226 636 ft 0 kts 338°
2026-04-28 16:29 66.55600 25.82201 635 ft 0 kts 290°
2026-04-28 16:30 66.55601 25.82201 639 ft 3 kts 302°
2026-04-28 16:30 66.55630 25.82109 661 ft 17 kts 323°
2026-04-28 16:30 66.55594 25.81881 638 ft 8 kts 34°
2026-04-28 16:31 66.55576 25.81867 640 ft 5 kts 48°
2026-04-28 16:31 66.55566 25.81841 632 ft 0 kts 27°
2026-04-28 16:32 66.55569 25.81846 637 ft 1 kts 35°
2026-04-28 16:32 66.55642 25.83294 984 ft 80 kts 71°
2026-04-28 16:32 66.55731 25.84853 1087 ft 99 kts 73°
2026-04-28 16:33 66.55879 25.86689 964 ft 115 kts 69°
2026-04-28 16:33 66.56027 25.88015 882 ft 121 kts 63°
2026-04-28 16:33 66.56512 25.90565 686 ft 120 kts 55°
2026-04-28 16:33 66.56910 25.92355 716 ft 111 kts 53°
2026-04-28 16:34 66.57262 25.94143 749 ft 120 kts 59°
2026-04-28 16:34 66.57587 25.96114 753 ft 126 kts 62°
2026-04-28 16:34 66.57897 25.98228 759 ft 135 kts 63°
2026-04-28 16:34 66.58279 26.00398 744 ft 135 kts 57°
2026-04-28 16:35 66.58720 26.02452 649 ft 132 kts 58°
2026-04-28 16:35 66.59163 26.04504 617 ft 133 kts 55°
2026-04-28 16:35 66.59649 26.06530 617 ft 136 kts 49°
2026-04-28 16:35 66.60222 26.08255 812 ft 126 kts 42°
2026-04-28 16:36 66.60765 26.09962 942 ft 126 kts 45°
2026-04-28 16:36 66.61275 26.11788 934 ft 130 kts 52°
2026-04-28 16:36 66.61753 26.13718 943 ft 130 kts 53°
2026-04-28 16:36 66.62243 26.15616 964 ft 128 kts 49°
2026-04-28 16:37 66.62727 26.17479 1012 ft 129 kts 52°
2026-04-28 16:37 66.63225 26.19409 1023 ft 128 kts 49°
2026-04-28 16:37 66.63783 26.21125 1088 ft 125 kts 40°
2026-04-28 16:38 66.64926 26.24297 1407 ft 121 kts 45°
2026-04-28 16:38 66.65389 26.26067 1408 ft 126 kts 51°
2026-04-28 16:38 66.65820 26.27937 1509 ft 121 kts 54°
2026-04-28 16:38 66.66157 26.29892 1591 ft 125 kts 62°
2026-04-28 16:39 66.66356 26.32086 1650 ft 132 kts 68°
2026-04-28 16:39 66.66484 26.34435 1655 ft 137 kts 73°
2026-04-28 16:39 66.66575 26.36801 1286 ft 135 kts 74°
2026-04-28 16:39 66.66692 26.39185 1216 ft 134 kts 75°
2026-04-28 16:40 66.66728 26.41505 1284 ft 133 kts 81°
2026-04-28 16:40 66.66663 26.43830 1401 ft 133 kts 84°
2026-04-28 16:40 66.66576 26.46172 1489 ft 134 kts 85°
2026-04-28 16:40 66.66563 26.48479 1615 ft 129 kts 75°
2026-04-28 16:41 66.66666 26.50727 1547 ft 135 kts 72°
2026-04-28 16:41 66.66831 26.53133 1271 ft 145 kts 71°
2026-04-28 16:41 66.67015 26.55618 1085 ft 142 kts 70°
2026-04-28 16:41 66.67278 26.58132 1014 ft 155 kts 64°
2026-04-28 16:42 66.67592 26.60581 978 ft 141 kts 67°
2026-04-28 16:42 66.67902 26.62868 1217 ft 132 kts 57°
2026-04-28 16:42 66.68513 26.64638 1161 ft 138 kts 39°
2026-04-28 16:42 66.69156 26.66418 1227 ft 138 kts 44°
2026-04-28 16:43 66.69787 26.68336 1107 ft 143 kts 44°
2026-04-28 16:43 66.70420 26.70287 1002 ft 140 kts 43°
2026-04-28 16:43 66.71010 26.71941 1057 ft 115 kts 43°
2026-04-28 16:43 66.71493 26.73418 1191 ft 105 kts 44°
2026-04-28 16:44 66.71920 26.74962 1199 ft 113 kts 53°
2026-04-28 16:44 66.72379 26.76771 1126 ft 129 kts 50°
2026-04-28 16:44 66.72899 26.78622 1185 ft 123 kts 49°
2026-04-28 16:44 66.73347 26.80420 1312 ft 123 kts 52°
2026-04-28 16:45 66.73744 26.82343 1391 ft 124 kts 56°
2026-04-28 16:45 66.74091 26.84395 1380 ft 129 kts 60°
2026-04-28 16:45 66.74400 26.86562 1408 ft 127 kts 63°
2026-04-28 16:45 66.74750 26.88483 1343 ft 125 kts 56°
2026-04-28 16:46 66.75127 26.90531 1336 ft 128 kts 59°
2026-04-28 16:46 66.75450 26.92634 1329 ft 129 kts 62°
2026-04-28 16:46 66.75851 26.94532 1267 ft 110 kts 34°
2026-04-28 16:46 66.76324 26.95565 1247 ft 87 kts 31°
2026-04-28 16:47 66.76743 26.96428 1159 ft 47 kts 13°
2026-04-28 16:47 66.76936 26.96856 1069 ft 42 kts 19°
2026-04-28 16:47 66.77177 26.97189 929 ft 23 kts 302°
2026-04-28 16:47 66.77173 26.97250 788 ft 3 kts 270°
2026-04-28 16:48 66.77177 26.97255 773 ft 0 kts 171°
2026-04-28 16:53 66.77175 26.97259 773 ft 0 kts 229°
2026-04-28 16:53 66.77174 26.97259 772 ft 0 kts 66°
2026-04-28 16:54 66.77181 26.97309 765 ft 0 kts 30°
2026-04-28 16:54 66.77202 26.97291 764 ft 3 kts 178°
2026-04-28 16:54 66.77200 26.97266 770 ft 0 kts 126°
2026-04-28 16:54 66.77200 26.97264 770 ft 0 kts 84°